createdAt,value
2023-03-19T00:01:53.039Z,21.35
2023-03-19T00:04:22.923Z,21.35
2023-03-19T00:06:52.857Z,21.35
2023-03-19T00:09:22.797Z,21.36
2023-03-19T00:11:52.713Z,21.35
2023-03-19T00:14:22.320Z,21.38
2023-03-19T00:16:52.289Z,21.37
2023-03-19T00:19:22.217Z,21.37
2023-03-19T00:21:51.893Z,21.37
2023-03-19T00:24:22.182Z,21.39
2023-03-19T00:26:51.797Z,21.39
2023-03-19T00:29:21.389Z,21.40
2023-03-19T00:31:51.316Z,21.40
2023-03-19T00:34:20.973Z,21.40
2023-03-19T00:36:50.601Z,21.38
2023-03-19T00:39:20.258Z,21.40
2023-03-19T00:41:51.990Z,21.42
2023-03-19T00:44:21.545Z,21.42
2023-03-19T00:46:51.118Z,21.43
2023-03-19T00:49:20.754Z,21.40
2023-03-19T00:51:50.416Z,21.42
2023-03-19T00:54:20.083Z,21.44
2023-03-19T00:56:49.687Z,21.43
2023-03-19T00:59:19.240Z,21.43
2023-03-19T01:01:48.865Z,21.45
2023-03-19T01:04:19.174Z,21.45
2023-03-19T01:06:49.065Z,21.45
2023-03-19T01:09:18.727Z,21.47
2023-03-19T01:11:48.281Z,21.47
2023-03-19T01:14:19.552Z,21.46
2023-03-19T01:16:49.220Z,21.47
2023-03-19T01:19:18.837Z,21.46
2023-03-19T01:21:48.517Z,21.48
2023-03-19T01:24:18.790Z,21.48
2023-03-19T01:26:48.391Z,21.51
2023-03-19T01:29:18.055Z,21.49
2023-03-19T01:31:47.599Z,21.51
2023-03-19T01:34:18.001Z,21.51
2023-03-19T01:36:48.601Z,21.53
2023-03-19T01:39:18.274Z,21.52
2023-03-19T01:41:48.364Z,21.52
2023-03-19T01:44:35.160Z,21.53
2023-03-19T01:47:09.456Z,21.53
2023-03-19T01:49:38.417Z,21.54
2023-03-19T01:52:08.987Z,21.52
2023-03-19T01:54:38.622Z,21.53
2023-03-19T01:57:09.686Z,21.52
2023-03-19T01:59:41.013Z,21.55
2023-03-19T02:02:16.094Z,21.55
2023-03-19T02:04:46.244Z,21.56
2023-03-19T02:07:16.227Z,21.59
2023-03-19T02:09:46.150Z,21.60
2023-03-19T02:12:15.825Z,21.60
2023-03-19T02:14:45.400Z,21.59
2023-03-19T02:17:15.428Z,21.59
2023-03-19T02:20:02.513Z,21.59
2023-03-19T02:22:32.313Z,21.61
2023-03-19T02:25:18.744Z,21.62
2023-03-19T02:27:48.356Z,21.64
2023-03-19T02:30:33.060Z,21.63
2023-03-19T02:33:02.980Z,21.64
2023-03-19T02:35:34.200Z,21.64
2023-03-19T02:38:04.713Z,21.67
2023-03-19T02:40:40.250Z,21.68
2023-03-19T02:43:09.827Z,21.69
2023-03-19T02:45:39.459Z,21.69
2023-03-19T02:48:09.055Z,21.69
2023-03-19T02:50:38.663Z,21.69
2023-03-19T02:53:08.455Z,21.71
2023-03-19T02:55:38.378Z,21.71
2023-03-19T02:58:08.218Z,21.71
2023-03-19T03:00:37.883Z,21.70
2023-03-19T03:03:09.147Z,21.71
2023-03-19T03:05:38.834Z,21.70
2023-03-19T03:08:08.485Z,21.69
2023-03-19T03:10:38.136Z,21.72
2023-03-19T03:13:08.616Z,21.72
2023-03-19T03:15:38.149Z,21.72
2023-03-19T03:18:07.974Z,21.71
2023-03-19T03:20:37.957Z,21.73
2023-03-19T03:23:08.462Z,21.71
2023-03-19T03:25:38.256Z,21.69
2023-03-19T03:28:07.887Z,21.70
2023-03-19T03:30:37.846Z,21.71
2023-03-19T03:33:07.421Z,21.70
2023-03-19T03:35:37.066Z,21.72
2023-03-19T03:38:06.758Z,21.70
2023-03-19T03:40:36.712Z,21.68
2023-03-19T03:43:06.572Z,21.72
2023-03-19T03:45:36.249Z,21.73
2023-03-19T03:48:06.046Z,21.72
2023-03-19T03:50:35.888Z,21.72
2023-03-19T03:53:05.736Z,21.71
2023-03-19T03:55:35.319Z,21.71
2023-03-19T03:58:04.955Z,21.72
2023-03-19T04:00:34.923Z,21.74
2023-03-19T04:03:04.800Z,21.71
2023-03-19T04:05:34.472Z,21.73
2023-03-19T04:08:05.184Z,21.74
2023-03-19T04:10:37.076Z,21.73
2023-03-19T04:13:06.663Z,21.72
2023-03-19T04:15:36.412Z,21.72
2023-03-19T04:18:06.173Z,21.72
2023-03-19T04:20:36.308Z,21.73
2023-03-19T04:23:06.192Z,21.73
2023-03-19T04:25:35.833Z,21.74
2023-03-19T04:28:05.458Z,21.75
2023-03-19T04:30:35.557Z,21.73
2023-03-19T04:33:06.349Z,21.73
2023-03-19T04:35:36.344Z,21.72
2023-03-19T04:38:06.216Z,21.72
2023-03-19T04:40:36.057Z,21.75
2023-03-19T04:43:05.839Z,21.74
2023-03-19T04:45:35.816Z,21.72
2023-03-19T04:48:05.566Z,21.74
2023-03-19T04:50:36.351Z,21.73
2023-03-19T04:53:05.968Z,21.73
2023-03-19T04:55:35.737Z,21.73
2023-03-19T04:58:05.740Z,21.73
2023-03-19T05:00:35.473Z,21.75
2023-03-19T05:03:05.299Z,21.73
2023-03-19T05:05:35.016Z,21.74
2023-03-19T05:08:04.990Z,21.74
2023-03-19T05:10:34.824Z,21.76
2023-03-19T05:13:04.596Z,21.75
2023-03-19T05:15:34.408Z,21.73
2023-03-19T05:18:04.104Z,21.73
2023-03-19T05:20:33.789Z,21.73
2023-03-19T05:23:04.351Z,21.73
2023-03-19T05:25:34.241Z,21.72
2023-03-19T05:28:04.392Z,21.72
2023-03-19T05:30:34.716Z,21.72
2023-03-19T05:33:05.086Z,21.74
2023-03-19T05:35:34.873Z,21.72
2023-03-19T05:38:04.456Z,21.73
2023-03-19T05:40:35.369Z,21.73
2023-03-19T05:43:05.229Z,21.74
2023-03-19T05:45:35.051Z,21.73
2023-03-19T05:48:05.659Z,21.72
2023-03-19T05:50:35.651Z,21.71
2023-03-19T05:53:05.373Z,21.72
2023-03-19T05:55:35.013Z,21.74
2023-03-19T05:58:04.614Z,21.73
2023-03-19T06:00:34.455Z,21.73
2023-03-19T06:03:04.322Z,21.72
2023-03-19T06:05:33.978Z,21.74
2023-03-19T06:08:03.567Z,21.72
2023-03-19T06:10:33.493Z,21.72
2023-03-19T06:13:03.310Z,21.70
2023-03-19T06:15:33.190Z,21.72
2023-03-19T06:18:03.037Z,21.72
2023-03-19T06:20:33.632Z,21.71
2023-03-19T06:23:03.434Z,21.72
2023-03-19T06:25:33.227Z,21.71
2023-03-19T06:28:02.925Z,21.70
2023-03-19T06:30:33.053Z,21.72
2023-03-19T06:33:03.287Z,21.71
2023-03-19T06:35:32.951Z,21.70
2023-03-19T06:38:02.585Z,21.70
2023-03-19T06:40:32.259Z,21.72
2023-03-19T06:43:02.416Z,21.70
2023-03-19T06:45:32.503Z,21.70
2023-03-19T06:48:02.304Z,21.70
2023-03-19T06:50:32.153Z,21.70
2023-03-19T06:53:02.102Z,21.70
2023-03-19T06:55:32.568Z,21.70
2023-03-19T06:58:02.472Z,21.70
2023-03-19T07:00:32.497Z,21.69
2023-03-19T07:03:02.351Z,21.68
2023-03-19T07:05:32.078Z,21.67
2023-03-19T07:08:01.881Z,21.69
2023-03-19T07:10:31.495Z,21.70
2023-03-19T07:13:01.102Z,21.68
2023-03-19T07:15:30.774Z,21.67
2023-03-19T07:18:00.531Z,21.68
2023-03-19T07:20:30.259Z,21.65
2023-03-19T07:22:59.907Z,21.66
2023-03-19T07:25:29.570Z,21.65
2023-03-19T07:27:59.358Z,21.65
2023-03-19T07:30:28.959Z,21.65
2023-03-19T07:32:58.669Z,21.65
2023-03-19T07:35:28.468Z,21.66
2023-03-19T07:37:58.119Z,21.64
2023-03-19T07:40:28.341Z,21.62
2023-03-19T07:42:58.030Z,21.63
2023-03-19T07:45:27.715Z,21.62
2023-03-19T07:47:57.497Z,21.59
2023-03-19T07:50:27.421Z,21.60
2023-03-19T07:52:57.248Z,21.61
2023-03-19T07:55:27.237Z,21.61
2023-03-19T07:57:57.074Z,21.59
2023-03-19T08:00:26.820Z,21.58
2023-03-19T08:02:56.385Z,21.62
2023-03-19T08:05:26.351Z,21.59
2023-03-19T08:07:55.974Z,21.59
2023-03-19T08:10:25.725Z,21.58
2023-03-19T08:12:55.413Z,21.61
2023-03-19T08:15:25.128Z,21.59
2023-03-19T08:18:05.717Z,21.60
2023-03-19T08:20:35.782Z,21.59
2023-03-19T08:23:06.041Z,21.61
2023-03-19T08:25:35.606Z,21.58
2023-03-19T08:28:05.251Z,21.60
2023-03-19T08:30:35.352Z,21.59
2023-03-19T08:33:05.230Z,21.59
2023-03-19T08:35:34.880Z,21.61
2023-03-19T08:38:04.531Z,21.60
2023-03-19T08:40:34.353Z,21.61
2023-03-19T08:43:05.463Z,21.58
2023-03-19T08:45:35.118Z,21.59
2023-03-19T08:48:05.740Z,21.58
2023-03-19T08:50:35.699Z,21.57
2023-03-19T08:53:05.557Z,21.58
2023-03-19T08:55:35.376Z,21.60
2023-03-19T08:58:05.022Z,21.57
2023-03-19T09:00:34.838Z,21.57
2023-03-19T09:03:04.653Z,21.57
2023-03-19T09:05:34.255Z,21.57
2023-03-19T09:08:03.889Z,21.56
2023-03-19T09:10:33.830Z,21.57
2023-03-19T09:13:03.831Z,21.56
2023-03-19T09:15:33.707Z,21.56
2023-03-19T09:18:03.441Z,21.55
2023-03-19T09:20:33.075Z,21.54
2023-03-19T09:23:02.686Z,21.54
2023-03-19T09:25:32.644Z,21.53
2023-03-19T09:28:02.499Z,21.53
2023-03-19T09:30:32.382Z,21.54
2023-03-19T09:33:02.097Z,21.53
2023-03-19T09:35:33.226Z,21.53
2023-03-19T09:38:06.013Z,21.52
2023-03-19T09:40:43.939Z,21.52
2023-03-19T09:43:37.623Z,21.52
2023-03-19T09:46:12.519Z,21.49
2023-03-19T09:48:53.844Z,21.48
2023-03-19T09:51:48.624Z,21.49
2023-03-19T09:54:50.806Z,21.50
2023-03-19T09:57:20.784Z,21.49
2023-03-19T09:59:50.696Z,21.48
2023-03-19T10:02:41.274Z,21.48
2023-03-19T10:05:28.959Z,21.46
2023-03-19T10:08:26.217Z,21.48
2023-03-19T10:11:23.244Z,21.45
2023-03-19T10:14:43.494Z,21.45
2023-03-19T10:17:17.981Z,21.41
2023-03-19T10:20:09.852Z,21.41
2023-03-19T10:22:46.722Z,21.41
2023-03-19T10:25:21.131Z,21.43
2023-03-19T10:27:55.865Z,21.44
2023-03-19T10:30:25.544Z,21.43
2023-03-19T10:33:24.997Z,21.41
2023-03-19T10:36:01.011Z,21.43
2023-03-19T10:38:31.011Z,21.41
2023-03-19T10:41:06.806Z,21.42
2023-03-19T10:43:36.434Z,21.39
2023-03-19T10:46:06.165Z,21.41
2023-03-19T10:48:36.614Z,21.39
2023-03-19T10:51:09.092Z,21.39
2023-03-19T10:53:40.116Z,21.39
2023-03-19T10:56:25.713Z,21.38
2023-03-19T10:59:08.690Z,21.39
2023-03-19T11:01:42.849Z,21.39
2023-03-19T11:04:21.854Z,21.37
2023-03-19T11:07:12.865Z,21.36
2023-03-19T11:09:50.098Z,21.34
2023-03-19T11:12:26.157Z,21.37
2023-03-19T11:14:56.935Z,21.35
2023-03-19T11:17:42.182Z,21.35
2023-03-19T11:20:38.708Z,21.36
2023-03-19T11:23:29.213Z,21.36
2023-03-19T11:26:03.218Z,21.35
2023-03-19T11:28:35.802Z,21.35
2023-03-19T11:31:05.497Z,21.35
2023-03-19T11:33:50.155Z,21.33
2023-03-19T11:37:09.402Z,21.33
2023-03-19T11:40:04.516Z,21.30
2023-03-19T11:43:05.062Z,21.30
2023-03-19T11:45:53.700Z,21.30
2023-03-19T11:48:38.177Z,21.29
2023-03-19T11:51:39.277Z,21.27
2023-03-19T11:54:11.205Z,21.26
2023-03-19T11:57:15.798Z,21.27
2023-03-19T12:00:20.075Z,21.27
2023-03-19T12:03:30.380Z,21.26
2023-03-19T12:05:59.947Z,21.25
2023-03-19T12:08:44.934Z,21.25
2023-03-19T12:11:27.570Z,21.25
2023-03-19T12:14:21.582Z,21.26
2023-03-19T12:16:57.513Z,21.23
2023-03-19T12:19:42.866Z,21.25
2023-03-19T12:22:28.000Z,21.25
2023-03-19T12:25:37.594Z,21.25
2023-03-19T12:28:16.488Z,21.24
2023-03-19T12:31:11.941Z,21.25
2023-03-19T12:34:00.670Z,21.23
2023-03-19T12:36:33.656Z,21.23
2023-03-19T12:39:13.456Z,21.24
2023-03-19T12:41:44.989Z,21.24
2023-03-19T12:44:29.821Z,21.22
2023-03-19T12:47:25.534Z,21.24
2023-03-19T12:50:02.350Z,21.23
2023-03-19T12:52:45.495Z,21.22
2023-03-19T12:55:15.016Z,21.23
2023-03-19T12:57:58.046Z,21.22
2023-03-19T13:00:33.609Z,21.22
2023-03-19T13:03:22.340Z,21.20
2023-03-19T13:06:02.092Z,21.21
2023-03-19T13:08:53.983Z,21.22
2023-03-19T13:12:05.710Z,21.20
2023-03-19T13:14:49.502Z,21.19
2023-03-19T13:17:39.984Z,21.19
2023-03-19T13:20:27.678Z,21.19
2023-03-19T13:23:01.371Z,21.19
2023-03-19T13:25:35.837Z,21.18
2023-03-19T13:28:05.563Z,21.21
2023-03-19T13:30:35.410Z,21.20
2023-03-19T13:33:06.467Z,21.19
2023-03-19T13:35:38.623Z,21.19
2023-03-19T13:38:20.102Z,21.20
2023-03-19T13:40:56.131Z,21.18
2023-03-19T13:43:31.857Z,21.19
2023-03-19T13:46:19.351Z,21.17
2023-03-19T13:48:49.248Z,21.15
2023-03-19T13:51:21.990Z,21.16
2023-03-19T13:54:08.754Z,21.16
2023-03-19T13:57:09.374Z,21.15
2023-03-19T13:59:40.295Z,21.16
2023-03-19T14:02:28.037Z,21.16
2023-03-19T14:05:04.319Z,21.14
2023-03-19T14:07:43.904Z,21.15
2023-03-19T14:10:26.908Z,21.14
2023-03-19T14:13:10.607Z,21.14
2023-03-19T14:15:42.350Z,21.11
2023-03-19T14:18:15.138Z,21.14
2023-03-19T14:21:00.969Z,21.13
2023-03-19T14:23:40.765Z,21.14
2023-03-19T14:26:30.388Z,21.13
2023-03-19T14:29:54.705Z,21.12
2023-03-19T14:32:26.729Z,21.11
2023-03-19T14:34:56.356Z,21.10
2023-03-19T14:37:31.475Z,21.09
2023-03-19T14:40:45.169Z,21.11
2023-03-19T14:43:17.749Z,21.11
2023-03-19T14:46:06.847Z,21.11
2023-03-19T14:49:00.904Z,21.09
2023-03-19T14:51:51.783Z,21.07
2023-03-19T14:54:36.784Z,21.08
2023-03-19T14:57:46.305Z,21.09
2023-03-19T15:00:37.773Z,21.08
2023-03-19T15:03:32.041Z,21.06
2023-03-19T15:06:06.177Z,21.07
2023-03-19T15:09:30.475Z,21.06
2023-03-19T15:12:35.076Z,21.05
2023-03-19T15:15:41.157Z,21.04
2023-03-19T15:18:28.661Z,21.04
2023-03-19T15:21:16.126Z,21.05
2023-03-19T15:24:06.098Z,21.03
2023-03-19T15:26:37.523Z,21.01
2023-03-19T15:29:12.027Z,21.01
2023-03-19T15:32:16.078Z,21.05
2023-03-19T15:34:47.768Z,21.02
2023-03-19T15:37:17.647Z,21.02
2023-03-19T15:39:50.776Z,21.05
2023-03-19T15:42:20.391Z,21.03
2023-03-19T15:45:03.940Z,21.04
2023-03-19T15:47:34.364Z,21.05
2023-03-19T15:50:04.823Z,21.02
2023-03-19T15:52:35.693Z,21.03
2023-03-19T15:55:05.558Z,21.03
2023-03-19T15:57:36.182Z,21.01
2023-03-19T16:00:06.776Z,21.01
2023-03-19T16:02:36.525Z,21.02
2023-03-19T16:05:21.504Z,20.99
2023-03-19T16:07:59.082Z,21.01
2023-03-19T16:10:33.147Z,20.99
2023-03-19T16:13:05.694Z,20.98
2023-03-19T16:15:48.161Z,21.00
2023-03-19T16:18:20.740Z,20.97
2023-03-19T16:21:07.671Z,20.98
2023-03-19T16:23:44.688Z,20.97
2023-03-19T16:26:27.784Z,20.97
2023-03-19T16:29:05.288Z,20.97
2023-03-19T16:31:42.628Z,20.96
2023-03-19T16:34:26.267Z,20.97
2023-03-19T16:36:55.839Z,20.98
2023-03-19T16:39:38.623Z,20.97
2023-03-19T16:42:18.133Z,20.96
2023-03-19T16:44:48.805Z,20.94
2023-03-19T16:47:18.547Z,20.96
2023-03-19T16:49:51.224Z,20.96
2023-03-19T16:52:24.360Z,20.95
2023-03-19T16:54:53.916Z,20.93
2023-03-19T16:57:23.606Z,20.93
2023-03-19T16:59:53.183Z,20.93
2023-03-19T17:02:22.857Z,20.93
2023-03-19T17:04:53.692Z,20.94
2023-03-19T17:07:23.313Z,20.93
2023-03-19T17:09:52.922Z,20.93
2023-03-19T17:12:22.526Z,20.94
2023-03-19T17:14:54.672Z,20.94
2023-03-19T17:17:24.243Z,20.94
2023-03-19T17:19:53.915Z,20.93
2023-03-19T17:22:24.826Z,20.92
2023-03-19T17:24:54.544Z,20.91
2023-03-19T17:27:24.095Z,20.91
2023-03-19T17:29:53.716Z,20.92
2023-03-19T17:32:23.359Z,20.90
2023-03-19T17:34:52.990Z,20.88
2023-03-19T17:37:22.584Z,20.90
2023-03-19T17:39:52.314Z,20.90
2023-03-19T17:42:23.964Z,20.89
2023-03-19T17:44:53.758Z,20.88
2023-03-19T17:47:23.423Z,20.89
2023-03-19T17:49:52.977Z,20.89
2023-03-19T17:52:24.883Z,20.87
2023-03-19T17:54:54.558Z,20.87
2023-03-19T17:57:24.188Z,20.87
2023-03-19T17:59:53.765Z,20.87
2023-03-19T18:02:27.399Z,20.87
2023-03-19T18:04:57.725Z,20.88
2023-03-19T18:07:27.392Z,20.86
2023-03-19T18:09:57.219Z,20.82
2023-03-19T18:12:26.792Z,20.85
2023-03-19T18:14:56.447Z,20.85
2023-03-19T18:17:26.070Z,20.83
2023-03-19T18:19:55.997Z,20.83
2023-03-19T18:22:27.047Z,20.85
2023-03-19T18:24:56.878Z,20.83
2023-03-19T18:27:26.499Z,20.83
2023-03-19T18:29:56.118Z,20.83
2023-03-19T18:32:28.595Z,20.83
2023-03-19T18:34:58.244Z,20.81
2023-03-19T18:37:27.905Z,20.83
2023-03-19T18:39:57.573Z,20.82
2023-03-19T18:42:27.408Z,20.80
2023-03-19T18:44:57.046Z,20.80
2023-03-19T18:47:26.771Z,20.80
2023-03-19T18:49:59.173Z,20.79
2023-03-19T18:52:28.855Z,20.78
2023-03-19T18:54:58.472Z,20.81
2023-03-19T18:57:28.027Z,20.80
2023-03-19T18:59:57.840Z,20.79
2023-03-19T19:02:35.382Z,20.79
2023-03-19T19:05:05.687Z,20.79
2023-03-19T19:07:35.330Z,20.80
2023-03-19T19:10:06.772Z,20.79
2023-03-19T19:12:36.887Z,20.77
2023-03-19T19:15:07.054Z,20.76
2023-03-19T19:17:36.792Z,20.79
2023-03-19T19:20:06.702Z,20.77
2023-03-19T19:22:36.328Z,20.78
2023-03-19T19:25:06.088Z,20.76
2023-03-19T19:27:35.751Z,20.74
2023-03-19T19:30:05.529Z,20.77
2023-03-19T19:32:36.862Z,20.75
2023-03-19T19:35:08.972Z,20.76
2023-03-19T19:37:38.569Z,20.74
2023-03-19T19:40:08.774Z,20.73
2023-03-19T19:42:38.438Z,20.72
2023-03-19T19:45:08.683Z,20.74
2023-03-19T19:47:38.270Z,20.75
2023-03-19T19:50:08.454Z,20.75
2023-03-19T19:52:38.167Z,20.72
2023-03-19T19:55:08.538Z,20.72
2023-03-19T19:57:38.135Z,20.72
2023-03-19T20:00:17.881Z,20.72
2023-03-19T20:02:47.543Z,20.74
2023-03-19T20:05:25.964Z,20.72
2023-03-19T20:07:57.432Z,20.69
2023-03-19T20:10:27.872Z,20.71
2023-03-19T20:12:59.157Z,20.70
2023-03-19T20:15:31.173Z,20.69
2023-03-19T20:18:01.310Z,20.69
2023-03-19T20:20:34.015Z,20.67
2023-03-19T20:23:03.752Z,20.67
2023-03-19T20:25:36.584Z,20.67
2023-03-19T20:28:06.875Z,20.67
2023-03-19T20:30:42.125Z,20.66
2023-03-19T20:33:12.707Z,20.66
2023-03-19T20:35:42.688Z,20.67
2023-03-19T20:38:13.090Z,20.62
2023-03-19T20:40:48.651Z,20.65
2023-03-19T20:43:31.258Z,20.63
2023-03-19T20:46:05.851Z,20.63
2023-03-19T20:48:35.631Z,20.63
2023-03-19T20:51:05.636Z,20.62
2023-03-19T20:53:35.195Z,20.60
2023-03-19T20:56:06.101Z,20.62
2023-03-19T20:58:38.766Z,20.60
2023-03-19T21:01:08.392Z,20.62
2023-03-19T21:03:38.077Z,20.60
2023-03-19T21:06:12.893Z,20.47
2023-03-19T21:08:46.206Z,20.76
2023-03-19T21:11:19.312Z,21.17
2023-03-19T21:13:49.699Z,21.66
2023-03-19T21:16:27.185Z,22.24
2023-03-19T21:18:57.202Z,22.73
2023-03-19T21:21:34.807Z,23.27
2023-03-19T21:24:15.444Z,23.77
2023-03-19T21:26:45.058Z,24.39
2023-03-19T21:29:28.758Z,24.53
2023-03-19T21:31:59.371Z,24.39
2023-03-19T21:34:29.856Z,24.22
2023-03-19T21:36:59.808Z,24.17
2023-03-19T21:39:29.994Z,24.26
2023-03-19T21:41:59.639Z,24.52
2023-03-19T21:44:31.186Z,25.06
2023-03-19T21:47:00.822Z,25.49
2023-03-19T21:49:31.831Z,25.80
2023-03-19T21:52:01.523Z,26.01
2023-03-19T21:54:31.130Z,26.25
2023-03-19T21:57:00.779Z,26.40
2023-03-19T21:59:33.327Z,26.58
2023-03-19T22:02:02.947Z,26.75
2023-03-19T22:04:32.666Z,26.86
2023-03-19T22:07:02.267Z,27.03
2023-03-19T22:09:32.273Z,27.13
2023-03-19T22:12:02.265Z,27.33
2023-03-19T22:14:31.844Z,27.36
2023-03-19T22:17:02.586Z,27.35
2023-03-19T22:19:32.245Z,27.45
2023-03-19T22:22:01.906Z,27.43
2023-03-19T22:24:31.570Z,27.65
2023-03-19T22:27:01.232Z,27.68
2023-03-19T22:29:30.840Z,27.73
2023-03-19T22:32:00.535Z,27.87
2023-03-19T22:34:30.377Z,27.84
2023-03-19T22:36:59.951Z,27.93
2023-03-19T22:39:29.607Z,28.02
2023-03-19T22:41:59.194Z,27.83
2023-03-19T22:44:30.274Z,27.48
2023-03-19T22:47:00.699Z,26.92
2023-03-19T22:49:31.224Z,26.55
2023-03-19T22:52:01.039Z,26.22
2023-03-19T22:54:31.013Z,26.14
2023-03-19T22:57:00.627Z,26.25
2023-03-19T22:59:30.961Z,26.36
2023-03-19T23:02:00.929Z,26.73
2023-03-19T23:04:33.978Z,27.11
2023-03-19T23:07:03.610Z,27.38
2023-03-19T23:09:34.739Z,27.62
2023-03-19T23:12:04.764Z,27.67
2023-03-19T23:14:34.459Z,27.87
2023-03-19T23:17:08.081Z,27.68
2023-03-19T23:19:38.621Z,27.12
2023-03-19T23:22:09.069Z,26.44
2023-03-19T23:24:39.244Z,25.87
2023-03-19T23:27:09.388Z,25.37
2023-03-19T23:29:41.293Z,24.93
2023-03-19T23:32:13.004Z,24.48
2023-03-19T23:34:56.276Z,24.21
2023-03-19T23:37:27.615Z,23.91
2023-03-19T23:39:58.134Z,23.67
2023-03-19T23:42:31.958Z,23.50
2023-03-19T23:45:03.616Z,23.33
2023-03-19T23:47:33.348Z,23.19
2023-03-19T23:50:02.911Z,23.07
2023-03-19T23:52:32.503Z,22.98
2023-03-19T23:55:02.105Z,22.88
2023-03-19T23:57:32.164Z,22.79
